sensor_id;sensor_type;location;lat;lon;timestamp;P1;durP1;ratioP1;P2;durP2;ratioP2
69280;SDS011;56392;51.082;17.080;2022-10-31T00:00:51;52.90;;;26.30;;
69280;SDS011;56392;51.082;17.080;2022-10-31T00:06:12;50.40;;;24.33;;
69280;SDS011;56392;51.082;17.080;2022-10-31T00:11:14;51.03;;;23.30;;
69280;SDS011;56392;51.082;17.080;2022-10-31T00:16:17;45.95;;;23.20;;
69280;SDS011;56392;51.082;17.080;2022-10-31T00:21:23;51.50;;;22.50;;
69280;SDS011;56392;51.082;17.080;2022-10-31T00:26:26;44.75;;;21.88;;
69280;SDS011;56392;51.082;17.080;2022-10-31T00:31:29;44.67;;;22.60;;
69280;SDS011;56392;51.082;17.080;2022-10-31T00:36:33;43.87;;;23.07;;
69280;SDS011;56392;51.082;17.080;2022-10-31T00:41:36;46.20;;;22.88;;
69280;SDS011;56392;51.082;17.080;2022-10-31T00:46:38;49.83;;;24.42;;
69280;SDS011;56392;51.082;17.080;2022-10-31T00:51:42;51.37;;;23.53;;
69280;SDS011;56392;51.082;17.080;2022-10-31T00:56:45;48.53;;;22.97;;
69280;SDS011;56392;51.082;17.080;2022-10-31T01:01:48;45.40;;;23.65;;
69280;SDS011;56392;51.082;17.080;2022-10-31T01:06:52;42.47;;;23.80;;
69280;SDS011;56392;51.082;17.080;2022-10-31T01:11:54;44.83;;;23.50;;
69280;SDS011;56392;51.082;17.080;2022-10-31T01:16:57;44.13;;;22.38;;
69280;SDS011;56392;51.082;17.080;2022-10-31T01:22:01;46.15;;;24.23;;
69280;SDS011;56392;51.082;17.080;2022-10-31T01:27:04;47.00;;;22.30;;
69280;SDS011;56392;51.082;17.080;2022-10-31T01:32:06;45.47;;;22.33;;
69280;SDS011;56392;51.082;17.080;2022-10-31T01:37:10;46.35;;;22.55;;
69280;SDS011;56392;51.082;17.080;2022-10-31T01:42:15;41.87;;;21.57;;
69280;SDS011;56392;51.082;17.080;2022-10-31T01:47:21;49.27;;;22.80;;
69280;SDS011;56392;51.082;17.080;2022-10-31T01:52:37;52.97;;;22.08;;
69280;SDS011;56392;51.082;17.080;2022-10-31T01:57:44;47.78;;;21.00;;
69280;SDS011;56392;51.082;17.080;2022-10-31T02:02:50;44.57;;;21.83;;
69280;SDS011;56392;51.082;17.080;2022-10-31T02:07:59;42.42;;;21.27;;
69280;SDS011;56392;51.082;17.080;2022-10-31T02:13:06;40.17;;;19.88;;
69280;SDS011;56392;51.082;17.080;2022-10-31T02:18:10;37.00;;;18.50;;
69280;SDS011;56392;51.082;17.080;2022-10-31T02:28:57;40.28;;;18.23;;
69280;SDS011;56392;51.082;17.080;2022-10-31T02:34:26;36.90;;;19.53;;
69280;SDS011;56392;51.082;17.080;2022-10-31T02:39:35;41.50;;;20.70;;
69280;SDS011;56392;51.082;17.080;2022-10-31T02:44:44;41.50;;;20.60;;
69280;SDS011;56392;51.082;17.080;2022-10-31T02:49:56;44.28;;;19.83;;
69280;SDS011;56392;51.082;17.080;2022-10-31T02:55:09;42.63;;;20.27;;
69280;SDS011;56392;51.082;17.080;2022-10-31T03:00:13;40.95;;;20.65;;
69280;SDS011;56392;51.082;17.080;2022-10-31T03:05:23;37.95;;;20.35;;
69280;SDS011;56392;51.082;17.080;2022-10-31T03:10:43;40.10;;;19.13;;
69280;SDS011;56392;51.082;17.080;2022-10-31T03:15:50;38.03;;;20.50;;
69280;SDS011;56392;51.082;17.080;2022-10-31T03:20:58;37.28;;;20.38;;
69280;SDS011;56392;51.082;17.080;2022-10-31T03:26:06;38.73;;;18.87;;
69280;SDS011;56392;51.082;17.080;2022-10-31T03:31:12;40.73;;;19.73;;
69280;SDS011;56392;51.082;17.080;2022-10-31T03:36:20;41.92;;;18.52;;
69280;SDS011;56392;51.082;17.080;2022-10-31T03:41:23;34.10;;;18.13;;
69280;SDS011;56392;51.082;17.080;2022-10-31T03:46:29;38.50;;;19.67;;
69280;SDS011;56392;51.082;17.080;2022-10-31T03:51:35;34.47;;;19.02;;
69280;SDS011;56392;51.082;17.080;2022-10-31T03:56:43;38.70;;;19.15;;
69280;SDS011;56392;51.082;17.080;2022-10-31T04:01:52;38.20;;;19.10;;
69280;SDS011;56392;51.082;17.080;2022-10-31T04:07:00;37.60;;;18.35;;
69280;SDS011;56392;51.082;17.080;2022-10-31T04:12:05;37.05;;;17.30;;
69280;SDS011;56392;51.082;17.080;2022-10-31T04:17:13;45.37;;;19.37;;
69280;SDS011;56392;51.082;17.080;2022-10-31T04:22:20;46.63;;;19.80;;
69280;SDS011;56392;51.082;17.080;2022-10-31T04:27:22;33.08;;;17.60;;
69280;SDS011;56392;51.082;17.080;2022-10-31T04:32:25;42.20;;;20.20;;
69280;SDS011;56392;51.082;17.080;2022-10-31T04:37:29;37.60;;;19.17;;
69280;SDS011;56392;51.082;17.080;2022-10-31T04:42:32;34.95;;;18.35;;
69280;SDS011;56392;51.082;17.080;2022-10-31T04:47:34;35.83;;;17.83;;
69280;SDS011;56392;51.082;17.080;2022-10-31T04:52:39;39.57;;;18.87;;
69280;SDS011;56392;51.082;17.080;2022-10-31T04:57:43;37.08;;;18.27;;
69280;SDS011;56392;51.082;17.080;2022-10-31T05:02:47;37.63;;;18.73;;
69280;SDS011;56392;51.082;17.080;2022-10-31T05:07:53;40.27;;;19.77;;
69280;SDS011;56392;51.082;17.080;2022-10-31T05:12:56;38.30;;;19.30;;
69280;SDS011;56392;51.082;17.080;2022-10-31T05:18:00;34.95;;;18.10;;
69280;SDS011;56392;51.082;17.080;2022-10-31T05:23:04;35.58;;;18.13;;
69280;SDS011;56392;51.082;17.080;2022-10-31T05:28:07;39.33;;;18.27;;
69280;SDS011;56392;51.082;17.080;2022-10-31T05:33:09;36.25;;;16.80;;
69280;SDS011;56392;51.082;17.080;2022-10-31T05:38:14;37.95;;;18.33;;
69280;SDS011;56392;51.082;17.080;2022-10-31T05:43:16;37.27;;;17.53;;
69280;SDS011;56392;51.082;17.080;2022-10-31T05:48:19;41.95;;;17.48;;
69280;SDS011;56392;51.082;17.080;2022-10-31T05:53:23;30.88;;;16.13;;
69280;SDS011;56392;51.082;17.080;2022-10-31T05:58:26;38.40;;;17.17;;
69280;SDS011;56392;51.082;17.080;2022-10-31T06:03:28;32.30;;;16.90;;
69280;SDS011;56392;51.082;17.080;2022-10-31T06:08:32;40.00;;;18.80;;
69280;SDS011;56392;51.082;17.080;2022-10-31T06:13:35;36.78;;;18.27;;
69280;SDS011;56392;51.082;17.080;2022-10-31T06:18:37;32.60;;;16.57;;
69280;SDS011;56392;51.082;17.080;2022-10-31T06:23:41;31.23;;;16.05;;
69280;SDS011;56392;51.082;17.080;2022-10-31T06:28:44;33.72;;;17.02;;
69280;SDS011;56392;51.082;17.080;2022-10-31T06:33:47;34.17;;;17.67;;
69280;SDS011;56392;51.082;17.080;2022-10-31T06:38:51;35.90;;;17.08;;
69280;SDS011;56392;51.082;17.080;2022-10-31T06:43:54;35.65;;;17.98;;
69280;SDS011;56392;51.082;17.080;2022-10-31T06:48:56;34.23;;;17.33;;
69280;SDS011;56392;51.082;17.080;2022-10-31T06:54:01;36.73;;;15.40;;
69280;SDS011;56392;51.082;17.080;2022-10-31T06:59:04;34.97;;;16.65;;
69280;SDS011;56392;51.082;17.080;2022-10-31T07:04:07;36.10;;;16.13;;
69280;SDS011;56392;51.082;17.080;2022-10-31T07:09:11;30.87;;;14.07;;
69280;SDS011;56392;51.082;17.080;2022-10-31T07:14:14;33.53;;;14.00;;
69280;SDS011;56392;51.082;17.080;2022-10-31T07:19:17;34.47;;;14.50;;
69280;SDS011;56392;51.082;17.080;2022-10-31T07:24:21;29.20;;;13.90;;
69280;SDS011;56392;51.082;17.080;2022-10-31T07:29:24;31.58;;;14.18;;
69280;SDS011;56392;51.082;17.080;2022-10-31T07:34:26;32.28;;;14.15;;
69280;SDS011;56392;51.082;17.080;2022-10-31T07:39:30;35.83;;;16.67;;
69280;SDS011;56392;51.082;17.080;2022-10-31T07:44:33;34.90;;;16.57;;
69280;SDS011;56392;51.082;17.080;2022-10-31T07:49:36;29.15;;;14.32;;
69280;SDS011;56392;51.082;17.080;2022-10-31T07:54:40;29.15;;;11.98;;
69280;SDS011;56392;51.082;17.080;2022-10-31T07:59:43;31.33;;;12.57;;
69280;SDS011;56392;51.082;17.080;2022-10-31T08:04:46;29.60;;;13.63;;
69280;SDS011;56392;51.082;17.080;2022-10-31T08:09:50;28.92;;;11.55;;
69280;SDS011;56392;51.082;17.080;2022-10-31T08:14:53;20.43;;;9.50;;
69280;SDS011;56392;51.082;17.080;2022-10-31T08:19:56;28.65;;;10.75;;
69280;SDS011;56392;51.082;17.080;2022-10-31T08:25:00;27.58;;;11.20;;
69280;SDS011;56392;51.082;17.080;2022-10-31T08:30:05;26.07;;;10.87;;
69280;SDS011;56392;51.082;17.080;2022-10-31T08:35:08;24.07;;;9.07;;
69280;SDS011;56392;51.082;17.080;2022-10-31T08:40:13;21.02;;;8.52;;
69280;SDS011;56392;51.082;17.080;2022-10-31T08:45:15;18.40;;;7.55;;
69280;SDS011;56392;51.082;17.080;2022-10-31T08:50:18;19.77;;;6.67;;
69280;SDS011;56392;51.082;17.080;2022-10-31T08:55:22;17.63;;;6.20;;
69280;SDS011;56392;51.082;17.080;2022-10-31T09:00:25;17.05;;;5.65;;
69280;SDS011;56392;51.082;17.080;2022-10-31T09:05:28;17.37;;;5.57;;
69280;SDS011;56392;51.082;17.080;2022-10-31T09:10:33;14.98;;;5.10;;
69280;SDS011;56392;51.082;17.080;2022-10-31T09:15:39;15.27;;;5.55;;
69280;SDS011;56392;51.082;17.080;2022-10-31T09:20:43;14.63;;;5.03;;
69280;SDS011;56392;51.082;17.080;2022-10-31T09:25:49;15.23;;;5.40;;
69280;SDS011;56392;51.082;17.080;2022-10-31T09:30:53;18.92;;;5.90;;
69280;SDS011;56392;51.082;17.080;2022-10-31T09:35:57;15.75;;;5.25;;
69280;SDS011;56392;51.082;17.080;2022-10-31T09:41:04;18.60;;;6.00;;
69280;SDS011;56392;51.082;17.080;2022-10-31T09:46:18;16.73;;;5.20;;
69280;SDS011;56392;51.082;17.080;2022-10-31T09:51:29;17.98;;;5.00;;
69280;SDS011;56392;51.082;17.080;2022-10-31T09:56:36;15.20;;;4.90;;
69280;SDS011;56392;51.082;17.080;2022-10-31T10:01:42;14.18;;;4.30;;
69280;SDS011;56392;51.082;17.080;2022-10-31T10:06:49;15.27;;;5.00;;
69280;SDS011;56392;51.082;17.080;2022-10-31T10:11:58;16.83;;;4.40;;
69280;SDS011;56392;51.082;17.080;2022-10-31T10:17:15;16.77;;;4.40;;
69280;SDS011;56392;51.082;17.080;2022-10-31T10:22:26;17.60;;;4.80;;
69280;SDS011;56392;51.082;17.080;2022-10-31T10:27:39;17.73;;;5.13;;
69280;SDS011;56392;51.082;17.080;2022-10-31T10:32:57;13.50;;;4.27;;
69280;SDS011;56392;51.082;17.080;2022-10-31T10:38:02;15.35;;;4.80;;
69280;SDS011;56392;51.082;17.080;2022-10-31T10:43:24;15.60;;;5.05;;
69280;SDS011;56392;51.082;17.080;2022-10-31T10:48:36;18.03;;;5.37;;
69280;SDS011;56392;51.082;17.080;2022-10-31T10:53:45;15.25;;;4.45;;
69280;SDS011;56392;51.082;17.080;2022-10-31T10:59:03;17.95;;;5.22;;
69280;SDS011;56392;51.082;17.080;2022-10-31T11:04:11;13.80;;;4.63;;
69280;SDS011;56392;51.082;17.080;2022-10-31T11:09:26;17.50;;;5.93;;
69280;SDS011;56392;51.082;17.080;2022-10-31T11:14:30;19.30;;;5.50;;
69280;SDS011;56392;51.082;17.080;2022-10-31T11:19:33;15.02;;;5.28;;
69280;SDS011;56392;51.082;17.080;2022-10-31T11:24:37;14.60;;;5.10;;
69280;SDS011;56392;51.082;17.080;2022-10-31T11:29:43;12.65;;;4.93;;
69280;SDS011;56392;51.082;17.080;2022-10-31T11:34:46;15.00;;;4.60;;
69280;SDS011;56392;51.082;17.080;2022-10-31T11:39:53;15.70;;;4.73;;
69280;SDS011;56392;51.082;17.080;2022-10-31T11:44:59;14.45;;;4.53;;
69280;SDS011;56392;51.082;17.080;2022-10-31T11:50:08;12.95;;;4.20;;
69280;SDS011;56392;51.082;17.080;2022-10-31T11:55:17;13.53;;;4.37;;
69280;SDS011;56392;51.082;17.080;2022-10-31T12:00:36;21.30;;;4.80;;
69280;SDS011;56392;51.082;17.080;2022-10-31T12:05:42;13.70;;;4.57;;
69280;SDS011;56392;51.082;17.080;2022-10-31T12:10:50;12.93;;;4.60;;
69280;SDS011;56392;51.082;17.080;2022-10-31T12:16:05;15.27;;;4.70;;
69280;SDS011;56392;51.082;17.080;2022-10-31T12:21:17;16.30;;;4.60;;
69280;SDS011;56392;51.082;17.080;2022-10-31T12:26:29;14.55;;;4.90;;
69280;SDS011;56392;51.082;17.080;2022-10-31T12:31:43;15.53;;;4.50;;
69280;SDS011;56392;51.082;17.080;2022-10-31T12:36:55;15.63;;;4.70;;
69280;SDS011;56392;51.082;17.080;2022-10-31T12:42:05;17.13;;;4.47;;
69280;SDS011;56392;51.082;17.080;2022-10-31T12:47:28;13.63;;;4.43;;
69280;SDS011;56392;51.082;17.080;2022-10-31T12:52:54;17.47;;;4.87;;
69280;SDS011;56392;51.082;17.080;2022-10-31T12:58:03;14.85;;;4.68;;
69280;SDS011;56392;51.082;17.080;2022-10-31T13:03:17;14.18;;;4.88;;
69280;SDS011;56392;51.082;17.080;2022-10-31T13:08:26;14.07;;;4.87;;
69280;SDS011;56392;51.082;17.080;2022-10-31T13:13:35;15.93;;;5.40;;
69280;SDS011;56392;51.082;17.080;2022-10-31T13:18:44;14.60;;;4.82;;
69280;SDS011;56392;51.082;17.080;2022-10-31T13:23:50;16.20;;;5.30;;
69280;SDS011;56392;51.082;17.080;2022-10-31T13:28:54;15.48;;;5.05;;
69280;SDS011;56392;51.082;17.080;2022-10-31T13:34:04;21.20;;;4.65;;
69280;SDS011;56392;51.082;17.080;2022-10-31T13:39:17;14.27;;;5.33;;
69280;SDS011;56392;51.082;17.080;2022-10-31T13:44:26;16.50;;;5.60;;
69280;SDS011;56392;51.082;17.080;2022-10-31T13:49:39;14.07;;;4.72;;
69280;SDS011;56392;51.082;17.080;2022-10-31T13:54:42;12.85;;;4.75;;
69280;SDS011;56392;51.082;17.080;2022-10-31T13:59:47;12.40;;;4.30;;
69280;SDS011;56392;51.082;17.080;2022-10-31T14:04:55;15.52;;;5.53;;
69280;SDS011;56392;51.082;17.080;2022-10-31T14:10:02;14.70;;;5.50;;
69280;SDS011;56392;51.082;17.080;2022-10-31T14:15:13;15.00;;;5.80;;
69280;SDS011;56392;51.082;17.080;2022-10-31T14:20:31;17.50;;;5.53;;
69280;SDS011;56392;51.082;17.080;2022-10-31T14:25:37;18.85;;;5.80;;
69280;SDS011;56392;51.082;17.080;2022-10-31T14:30:50;15.30;;;5.27;;
69280;SDS011;56392;51.082;17.080;2022-10-31T14:36:08;14.07;;;5.63;;
69280;SDS011;56392;51.082;17.080;2022-10-31T14:46:50;15.85;;;5.20;;
69280;SDS011;56392;51.082;17.080;2022-10-31T14:52:01;15.83;;;5.50;;
69280;SDS011;56392;51.082;17.080;2022-10-31T14:57:13;17.55;;;5.10;;
69280;SDS011;56392;51.082;17.080;2022-10-31T15:02:20;16.23;;;5.45;;
69280;SDS011;56392;51.082;17.080;2022-10-31T15:07:29;14.60;;;5.17;;
69280;SDS011;56392;51.082;17.080;2022-10-31T15:12:32;14.95;;;5.32;;
69280;SDS011;56392;51.082;17.080;2022-10-31T15:17:41;18.13;;;5.57;;
69280;SDS011;56392;51.082;17.080;2022-10-31T15:22:51;18.80;;;5.50;;
69280;SDS011;56392;51.082;17.080;2022-10-31T15:27:55;18.50;;;6.70;;
69280;SDS011;56392;51.082;17.080;2022-10-31T15:32:58;21.65;;;6.95;;
69280;SDS011;56392;51.082;17.080;2022-10-31T15:38:02;19.00;;;7.50;;
69280;SDS011;56392;51.082;17.080;2022-10-31T15:43:05;20.90;;;8.20;;
69280;SDS011;56392;51.082;17.080;2022-10-31T15:48:13;22.08;;;9.32;;
69280;SDS011;56392;51.082;17.080;2022-10-31T15:53:22;24.25;;;8.27;;
69280;SDS011;56392;51.082;17.080;2022-10-31T15:58:27;21.37;;;7.53;;
69280;SDS011;56392;51.082;17.080;2022-10-31T16:03:32;18.10;;;7.55;;
69280;SDS011;56392;51.082;17.080;2022-10-31T16:08:37;20.25;;;8.35;;
69280;SDS011;56392;51.082;17.080;2022-10-31T16:13:53;20.50;;;7.70;;
69280;SDS011;56392;51.082;17.080;2022-10-31T16:18:58;20.83;;;8.40;;
69280;SDS011;56392;51.082;17.080;2022-10-31T16:24:05;21.27;;;7.68;;
69280;SDS011;56392;51.082;17.080;2022-10-31T16:29:27;20.42;;;7.80;;
69280;SDS011;56392;51.082;17.080;2022-10-31T16:34:34;15.37;;;7.63;;
69280;SDS011;56392;51.082;17.080;2022-10-31T16:39:39;21.17;;;7.32;;
69280;SDS011;56392;51.082;17.080;2022-10-31T16:44:41;21.20;;;7.75;;
69280;SDS011;56392;51.082;17.080;2022-10-31T16:49:47;20.50;;;7.83;;
69280;SDS011;56392;51.082;17.080;2022-10-31T16:54:52;20.70;;;6.72;;
69280;SDS011;56392;51.082;17.080;2022-10-31T16:59:55;17.10;;;7.32;;
69280;SDS011;56392;51.082;17.080;2022-10-31T17:04:59;20.90;;;9.10;;
69280;SDS011;56392;51.082;17.080;2022-10-31T17:10:04;17.63;;;7.47;;
69280;SDS011;56392;51.082;17.080;2022-10-31T17:15:09;16.42;;;7.28;;
69280;SDS011;56392;51.082;17.080;2022-10-31T17:20:19;19.88;;;7.97;;
69280;SDS011;56392;51.082;17.080;2022-10-31T17:25:25;19.47;;;7.60;;
69280;SDS011;56392;51.082;17.080;2022-10-31T17:30:31;19.50;;;7.68;;
69280;SDS011;56392;51.082;17.080;2022-10-31T17:35:35;17.75;;;7.93;;
69280;SDS011;56392;51.082;17.080;2022-10-31T17:40:39;16.43;;;8.00;;
69280;SDS011;56392;51.082;17.080;2022-10-31T17:45:43;18.23;;;7.60;;
69280;SDS011;56392;51.082;17.080;2022-10-31T17:50:45;19.13;;;9.00;;
69280;SDS011;56392;51.082;17.080;2022-10-31T17:55:49;20.97;;;8.20;;
69280;SDS011;56392;51.082;17.080;2022-10-31T18:00:52;18.77;;;8.00;;
69280;SDS011;56392;51.082;17.080;2022-10-31T18:05:55;24.77;;;9.63;;
69280;SDS011;56392;51.082;17.080;2022-10-31T18:11:03;24.00;;;10.80;;
69280;SDS011;56392;51.082;17.080;2022-10-31T18:16:09;23.20;;;10.93;;
69280;SDS011;56392;51.082;17.080;2022-10-31T18:21:13;23.77;;;10.93;;
69280;SDS011;56392;51.082;17.080;2022-10-31T18:26:16;21.90;;;10.25;;
69280;SDS011;56392;51.082;17.080;2022-10-31T18:31:19;21.70;;;9.57;;
69280;SDS011;56392;51.082;17.080;2022-10-31T18:36:23;20.25;;;9.65;;
69280;SDS011;56392;51.082;17.080;2022-10-31T18:41:27;24.67;;;9.35;;
69280;SDS011;56392;51.082;17.080;2022-10-31T18:46:30;18.83;;;9.20;;
69280;SDS011;56392;51.082;17.080;2022-10-31T18:51:33;18.17;;;8.00;;
69280;SDS011;56392;51.082;17.080;2022-10-31T18:56:37;20.00;;;8.85;;
69280;SDS011;56392;51.082;17.080;2022-10-31T19:01:39;25.70;;;10.30;;
69280;SDS011;56392;51.082;17.080;2022-10-31T19:06:42;46.33;;;20.03;;
69280;SDS011;56392;51.082;17.080;2022-10-31T19:11:46;35.42;;;14.73;;
69280;SDS011;56392;51.082;17.080;2022-10-31T19:16:49;25.45;;;12.40;;
69280;SDS011;56392;51.082;17.080;2022-10-31T19:21:52;21.47;;;10.03;;
69280;SDS011;56392;51.082;17.080;2022-10-31T19:26:57;21.05;;;10.13;;
69280;SDS011;56392;51.082;17.080;2022-10-31T19:32:00;21.63;;;9.38;;
69280;SDS011;56392;51.082;17.080;2022-10-31T19:37:03;18.70;;;8.30;;
69280;SDS011;56392;51.082;17.080;2022-10-31T19:42:08;16.90;;;8.20;;
69280;SDS011;56392;51.082;17.080;2022-10-31T19:47:11;19.88;;;8.95;;
69280;SDS011;56392;51.082;17.080;2022-10-31T19:52:15;22.60;;;10.55;;
69280;SDS011;56392;51.082;17.080;2022-10-31T19:57:20;27.47;;;12.17;;
69280;SDS011;56392;51.082;17.080;2022-10-31T20:02:23;21.75;;;11.10;;
69280;SDS011;56392;51.082;17.080;2022-10-31T20:07:27;23.80;;;11.20;;
69280;SDS011;56392;51.082;17.080;2022-10-31T20:12:32;31.53;;;14.53;;
69280;SDS011;56392;51.082;17.080;2022-10-31T20:17:35;31.77;;;15.57;;
69280;SDS011;56392;51.082;17.080;2022-10-31T20:22:40;37.30;;;18.17;;
69280;SDS011;56392;51.082;17.080;2022-10-31T20:27:44;44.50;;;20.13;;
69280;SDS011;56392;51.082;17.080;2022-10-31T20:32:46;38.47;;;18.77;;
69280;SDS011;56392;51.082;17.080;2022-10-31T20:37:49;37.80;;;19.02;;
69280;SDS011;56392;51.082;17.080;2022-10-31T20:42:53;45.60;;;21.65;;
69280;SDS011;56392;51.082;17.080;2022-10-31T20:47:56;45.40;;;20.73;;
69280;SDS011;56392;51.082;17.080;2022-10-31T20:52:59;45.50;;;22.33;;
69280;SDS011;56392;51.082;17.080;2022-10-31T20:58:05;44.28;;;21.63;;
69280;SDS011;56392;51.082;17.080;2022-10-31T21:03:07;37.87;;;18.17;;
69280;SDS011;56392;51.082;17.080;2022-10-31T21:08:10;29.15;;;13.00;;
69280;SDS011;56392;51.082;17.080;2022-10-31T21:13:14;31.60;;;14.75;;
69280;SDS011;56392;51.082;17.080;2022-10-31T21:18:18;30.87;;;15.53;;
69280;SDS011;56392;51.082;17.080;2022-10-31T21:23:20;37.23;;;16.40;;
69280;SDS011;56392;51.082;17.080;2022-10-31T21:28:25;44.53;;;18.35;;
69280;SDS011;56392;51.082;17.080;2022-10-31T21:33:28;39.88;;;16.85;;
69280;SDS011;56392;51.082;17.080;2022-10-31T21:38:30;30.10;;;14.07;;
69280;SDS011;56392;51.082;17.080;2022-10-31T21:43:35;26.58;;;10.63;;
69280;SDS011;56392;51.082;17.080;2022-10-31T21:48:40;34.08;;;14.05;;
69280;SDS011;56392;51.082;17.080;2022-10-31T21:53:43;34.10;;;15.23;;
69280;SDS011;56392;51.082;17.080;2022-10-31T21:59:05;28.65;;;12.80;;
69280;SDS011;56392;51.082;17.080;2022-10-31T22:04:08;24.17;;;12.27;;
69280;SDS011;56392;51.082;17.080;2022-10-31T22:09:12;28.07;;;10.47;;
69280;SDS011;56392;51.082;17.080;2022-10-31T22:14:17;22.30;;;9.63;;
69280;SDS011;56392;51.082;17.080;2022-10-31T22:19:20;20.30;;;9.90;;
69280;SDS011;56392;51.082;17.080;2022-10-31T22:24:22;23.05;;;10.48;;
69280;SDS011;56392;51.082;17.080;2022-10-31T22:29:26;20.43;;;10.07;;
69280;SDS011;56392;51.082;17.080;2022-10-31T22:34:29;25.10;;;10.63;;
69280;SDS011;56392;51.082;17.080;2022-10-31T22:39:32;28.65;;;11.98;;
69280;SDS011;56392;51.082;17.080;2022-10-31T22:44:36;28.70;;;12.63;;
69280;SDS011;56392;51.082;17.080;2022-10-31T22:49:38;25.95;;;12.38;;
69280;SDS011;56392;51.082;17.080;2022-10-31T22:54:41;27.70;;;13.40;;
69280;SDS011;56392;51.082;17.080;2022-10-31T22:59:45;23.60;;;12.87;;
69280;SDS011;56392;51.082;17.080;2022-10-31T23:04:48;26.93;;;13.13;;
69280;SDS011;56392;51.082;17.080;2022-10-31T23:09:51;31.42;;;15.30;;
69280;SDS011;56392;51.082;17.080;2022-10-31T23:14:55;30.73;;;15.52;;
69280;SDS011;56392;51.082;17.080;2022-10-31T23:19:58;31.23;;;13.80;;
69280;SDS011;56392;51.082;17.080;2022-10-31T23:25:01;31.05;;;14.55;;
69280;SDS011;56392;51.082;17.080;2022-10-31T23:30:05;26.35;;;14.32;;
69280;SDS011;56392;51.082;17.080;2022-10-31T23:35:09;26.37;;;13.90;;
69280;SDS011;56392;51.082;17.080;2022-10-31T23:40:12;28.20;;;14.13;;
69280;SDS011;56392;51.082;17.080;2022-10-31T23:45:16;23.30;;;12.80;;
69280;SDS011;56392;51.082;17.080;2022-10-31T23:50:19;23.53;;;12.10;;
69280;SDS011;56392;51.082;17.080;2022-10-31T23:55:22;29.20;;;13.23;;
